SIN weather

Singapore Changi Airport
Singapore, South East, Singapore

Public forecast

Using degrees Celsius for public forecast. Weather courtesy of forecast.io.

Current aviation weather report (METAR) for Singapore Changi Airport

Retrieved 2019/10/18 20:30 UTC (0 seconds ago):

WSSS 182030Z VRB02KT 9999 FEW016 BKN170 27/24 Q1009 NOSIG

Aviation forecast (TAF) for Singapore Changi Airport

Retrieved 2019/10/18 18:09 UTC (2 hours ago):

TAF WSSS 181700Z 1818/2000 16007KT 9999 FEW015 SCT020